MDPP

Gregorio Luperon International Airport

Puerto Plata, Dominican Republic
TAF MDPP 180400Z 1806/1906 00000KT 9999 FEW018 BECMG 1814/1816 09010KT SCT020
Issued Valid From Valid To
Aug-18 @ 04:00 UTC
(5 hours ago)
Aug-18 @ 06:00 UTC
(3 hours ago)
Aug-19 @ 06:00 UTC
(in 21 hours)
Aug-18 @ 06:00 to Aug-18 @ 14:00
TAF MDPP 180400Z 1806/1906 00000KT 9999 FEW018
Visibility Clouds
10,000+ meters
  • Few at 1,800' AGL
Becoming Aug-18 @ 14:00 to Aug-19 @ 06:00
BECMG 1814/1816 09010KT SCT020
Wind Visibility Clouds
90° at 10 knots 10,000+ meters
  • Scattered at 2,000' AGL
TAF MDPP 180400Z 1806/1906 00000KT 9999 FEW018 BECMG 1814/1816 09010KT SCT020
Issued Aug-18 @ 04:00 UTC
(5 hours ago)
Valid From Aug-18 @ 06:00 UTC
(3 hours ago)
Valid To Aug-19 @ 06:00 UTC
(in 21 hours)
Aug-18 @ 06:00 - Aug-18 @ 14:00
Clouds
  • Few at 1,800' AGL
Becoming Aug-18 @ 14:00 - Aug-19 @ 06:00
Wind Visibility
90° at 10 knots 10,000+ meters
Clouds
  • Scattered at 2,000' AGL